createdAt,value
2016-10-01T00:00:18.267Z,18.06
2016-10-01T00:01:28.263Z,18.03
2016-10-01T00:02:38.250Z,18.02
2016-10-01T00:03:48.548Z,18.01
2016-10-01T00:04:58.533Z,18.03
2016-10-01T00:06:08.822Z,18.01
2016-10-01T00:07:19.108Z,18.02
2016-10-01T00:08:29.418Z,17.98
2016-10-01T00:09:39.402Z,18.02
2016-10-01T00:10:49.391Z,18.01
2016-10-01T00:11:59.378Z,17.99
2016-10-01T00:13:09.361Z,18.02
2016-10-01T00:14:19.332Z,17.96
2016-10-01T00:15:29.324Z,18.06
2016-10-01T00:16:39.304Z,17.9
2016-10-01T00:17:49.011Z,17.99
2016-10-01T00:18:58.695Z,17.94
2016-10-01T00:20:08.981Z,17.86
2016-10-01T00:21:18.966Z,17.84
2016-10-01T00:22:28.624Z,17.9
2016-10-01T00:23:38.909Z,17.77
2016-10-01T00:24:49.203Z,17.8
2016-10-01T00:25:59.516Z,17.69
2016-10-01T00:27:09.826Z,17.62
2016-10-01T00:28:19.807Z,17.63
2016-10-01T00:29:30.117Z,17.63
2016-10-01T00:30:40.429Z,17.68
2016-10-01T00:31:50.414Z,17.73
2016-10-01T00:33:00.424Z,17.73
2016-10-01T00:34:10.085Z,17.69
2016-10-01T00:35:19.748Z,17.66
2016-10-01T00:36:29.427Z,17.66
2016-10-01T00:37:39.720Z,17.6
2016-10-01T00:38:49.706Z,17.66
2016-10-01T00:39:59.369Z,17.49
2016-10-01T00:41:09.061Z,17.54
2016-10-01T00:42:19.346Z,17.54
2016-10-01T00:43:29.343Z,17.58
2016-10-01T00:44:39.010Z,17.49
2016-10-01T00:45:48.674Z,17.47
2016-10-01T00:46:58.363Z,17.47
2016-10-01T00:48:08.350Z,17.5
2016-10-01T00:49:18.330Z,17.54
2016-10-01T00:50:28.309Z,17.46
2016-10-01T00:51:38.290Z,17.47
2016-10-01T00:52:48.569Z,17.46
2016-10-01T00:53:58.574Z,17.43
2016-10-01T00:55:08.566Z,17.46
2016-10-01T00:56:18.858Z,17.45
2016-10-01T00:57:29.147Z,17.46
2016-10-01T00:58:38.835Z,17.38
2016-10-01T00:59:49.137Z,17.31
2016-10-01T01:00:59.448Z,17.36
2016-10-01T01:02:09.127Z,17.32
2016-10-01T01:03:19.103Z,17.31
2016-10-01T01:04:29.083Z,17.24
2016-10-01T01:05:39.386Z,17.21
2016-10-01T01:06:49.412Z,17.3
2016-10-01T01:07:59.698Z,17.21
2016-10-01T01:09:09.685Z,17.27
2016-10-01T01:10:20.002Z,17.24
2016-10-01T01:11:29.984Z,17.2
2016-10-01T01:12:40.286Z,17.22
2016-10-01T01:13:50.581Z,17.28
2016-10-01T01:15:00.563Z,17.25
2016-10-01T01:16:10.530Z,17.07
2016-10-01T01:17:20.814Z,17.18
2016-10-01T01:18:30.181Z,17.06
2016-10-01T01:19:40.478Z,17.12
2016-10-01T01:20:50.087Z,17.05
2016-10-01T01:22:00.369Z,17.06
2016-10-01T01:23:10.673Z,17.15
2016-10-01T01:24:20.958Z,17.1
2016-10-01T01:25:30.953Z,17.06
2016-10-01T01:26:40.682Z,17.05
2016-10-01T01:27:50.973Z,17.09
2016-10-01T01:29:01.500Z,17.03
2016-10-01T01:30:11.794Z,16.92
2016-10-01T01:31:21.778Z,16.99
2016-10-01T01:32:31.777Z,17
2016-10-01T01:33:42.097Z,16.91
2016-10-01T01:34:52.093Z,16.9
2016-10-01T01:36:02.417Z,16.85
2016-10-01T01:37:12.708Z,16.85
2016-10-01T01:38:23.011Z,16.85
2016-10-01T01:39:33.299Z,16.92
2016-10-01T01:40:42.992Z,16.92
2016-10-01T01:41:52.981Z,16.92
2016-10-01T01:43:03.270Z,16.97
2016-10-01T01:44:13.243Z,16.92
2016-10-01T01:45:22.908Z,16.97
2016-10-01T01:46:32.893Z,17.03
2016-10-01T01:47:42.880Z,16.88
2016-10-01T01:48:52.871Z,16.92
2016-10-01T01:50:02.881Z,16.87
2016-10-01T01:51:12.864Z,16.92
2016-10-01T01:52:22.845Z,16.92
2016-10-01T01:53:33.164Z,16.87
2016-10-01T01:54:43.442Z,16.85
2016-10-01T01:55:53.424Z,16.9
2016-10-01T01:57:03.705Z,16.91
2016-10-01T01:58:13.992Z,16.81
2016-10-01T01:59:24.294Z,16.87
2016-10-01T02:00:34.277Z,16.74
2016-10-01T02:01:44.274Z,16.76
2016-10-01T02:02:54.264Z,16.67
2016-10-01T02:04:04.555Z,16.67
2016-10-01T02:05:14.542Z,16.65
2016-10-01T02:06:24.519Z,16.55
2016-10-01T02:07:34.809Z,16.57
2016-10-01T02:08:45.087Z,16.63
2016-10-01T02:09:55.376Z,16.63
2016-10-01T02:11:05.364Z,16.65
2016-10-01T02:12:15.647Z,16.66
2016-10-01T02:13:25.318Z,16.73
2016-10-01T02:14:35.309Z,16.67
2016-10-01T02:15:45.312Z,16.67
2016-10-01T02:16:55.609Z,16.69
2016-10-01T02:18:05.900Z,16.66
2016-10-01T02:19:16.193Z,16.69
2016-10-01T02:20:26.174Z,16.73
2016-10-01T02:21:36.163Z,16.59
2016-10-01T02:22:46.458Z,16.7
2016-10-01T02:23:56.750Z,16.69
2016-10-01T02:25:06.745Z,16.69
2016-10-01T02:26:17.022Z,16.66
2016-10-01T02:27:27.324Z,16.62
2016-10-01T02:28:37.619Z,16.69
2016-10-01T02:29:47.915Z,16.66
2016-10-01T02:30:57.314Z,16.73
2016-10-01T02:32:07.606Z,16.7
2016-10-01T02:33:17.896Z,16.67
2016-10-01T02:34:27.590Z,16.67
2016-10-01T02:35:37.258Z,16.69
2016-10-01T02:36:47.565Z,16.59
2016-10-01T02:37:57.545Z,16.63
2016-10-01T02:39:07.841Z,16.62
2016-10-01T02:40:17.823Z,16.59
2016-10-01T02:41:27.516Z,16.59
2016-10-01T02:42:37.498Z,16.55
2016-10-01T02:43:47.493Z,16.58
2016-10-01T02:44:57.469Z,16.57
2016-10-01T02:46:07.453Z,16.62
2016-10-01T02:47:17.754Z,16.59
2016-10-01T02:48:27.727Z,16.51
2016-10-01T02:49:37.641Z,16.52
2016-10-01T02:50:47.933Z,16.57
2016-10-01T02:51:57.917Z,16.59
2016-10-01T02:53:08.208Z,16.58
2016-10-01T02:54:18.510Z,16.62
2016-10-01T02:55:28.794Z,16.54
2016-10-01T02:56:38.783Z,16.55
2016-10-01T02:57:48.484Z,16.58
2016-10-01T02:58:58.767Z,16.59
2016-10-01T03:00:08.744Z,16.62
2016-10-01T03:32:31.353Z,13.03
2016-10-01T03:33:41.637Z,12.98
2016-10-01T03:34:51.915Z,12.95
2016-10-01T03:36:01.889Z,12.96
2016-10-01T03:37:12.166Z,13.07
2016-10-01T03:38:21.849Z,13.21
2016-10-01T03:39:31.210Z,13.24
2016-10-01T03:40:41.193Z,13.45
2016-10-01T03:41:51.503Z,13.63
2016-10-01T03:43:00.867Z,13.66
2016-10-01T03:44:10.539Z,13.78
2016-10-01T03:45:20.826Z,14.01
2016-10-01T03:46:30.486Z,14.08
2016-10-01T03:47:40.513Z,14.33
2016-10-01T03:48:50.485Z,14.45
2016-10-01T03:50:00.151Z,14.56
2016-10-01T03:51:09.539Z,14.61
2016-10-01T03:52:19.215Z,14.79
2016-10-01T03:53:28.906Z,14.9
2016-10-01T03:54:39.188Z,14.98
2016-10-01T03:55:48.550Z,15.1
2016-10-01T03:56:58.553Z,15.26
2016-10-01T03:58:08.838Z,15.18
2016-10-01T03:59:19.130Z,15.34
2016-10-01T04:00:29.118Z,15.44
2016-10-01T04:01:39.408Z,15.51
2016-10-01T04:02:49.075Z,15.63
2016-10-01T04:03:59.359Z,15.6
2016-10-01T04:05:09.644Z,15.67
2016-10-01T04:06:19.609Z,15.75
2016-10-01T04:07:29.611Z,15.74
2016-10-01T04:08:40.032Z,15.81
2016-10-01T04:09:50.320Z,15.86
2016-10-01T04:11:00.303Z,15.83
2016-10-01T04:12:10.289Z,15.91
2016-10-01T04:13:20.272Z,15.96
2016-10-01T04:14:30.256Z,15.95
2016-10-01T04:15:40.548Z,15.93
2016-10-01T04:16:50.537Z,16.07
2016-10-01T04:18:00.541Z,15.98
2016-10-01T04:19:10.825Z,16.07
2016-10-01T04:20:20.807Z,16.14
2016-10-01T04:21:31.082Z,16.13
2016-10-01T04:22:41.374Z,16.11
2016-10-01T04:23:51.347Z,16.17
2016-10-01T04:25:00.735Z,16.11
2016-10-01T04:26:10.418Z,16.13
2016-10-01T04:27:20.699Z,16.17
2016-10-01T04:28:31.009Z,16.06
2016-10-01T04:29:40.690Z,16.08
2016-10-01T04:30:51.010Z,16.16
2016-10-01T04:32:00.993Z,16.13
2016-10-01T04:33:10.975Z,16.04
2016-10-01T04:34:21.276Z,16.13
2016-10-01T04:35:31.561Z,16.11
2016-10-01T04:36:41.848Z,16.07
2016-10-01T04:37:51.523Z,16.1
2016-10-01T04:39:01.202Z,16.07
2016-10-01T04:40:11.499Z,16
2016-10-01T04:41:21.807Z,16.04
2016-10-01T04:42:31.467Z,16.14
2016-10-01T04:43:41.438Z,16.08
2016-10-01T04:44:51.730Z,16.04
2016-10-01T04:46:01.397Z,16.16
2016-10-01T04:47:11.703Z,16.11
2016-10-01T04:48:21.991Z,16.13
2016-10-01T04:49:31.973Z,16.21
2016-10-01T04:50:42.256Z,16.1
2016-10-01T04:51:52.541Z,16.13
2016-10-01T04:53:02.525Z,16.07
2016-10-01T04:54:12.809Z,16.14
2016-10-01T04:55:22.490Z,15.96
2016-10-01T04:56:32.777Z,15.99
2016-10-01T04:57:42.129Z,16.07
2016-10-01T04:58:52.405Z,15.96
2016-10-01T05:00:02.693Z,16.11
2016-10-01T05:01:12.377Z,16.02
2016-10-01T05:02:22.350Z,16.06
2016-10-01T05:03:32.324Z,16.02
2016-10-01T05:04:42.005Z,16.06
2016-10-01T05:05:51.987Z,16.04
2016-10-01T05:07:02.279Z,16.08
2016-10-01T05:08:12.241Z,16.16
2016-10-01T05:09:21.917Z,16.1
2016-10-01T05:10:31.897Z,16.16
2016-10-01T05:11:41.864Z,16.17
2016-10-01T05:12:52.160Z,16.25
2016-10-01T05:14:02.147Z,16.32
2016-10-01T05:15:12.424Z,16.36
2016-10-01T05:16:22.415Z,16.3
2016-10-01T05:17:32.707Z,16.39
2016-10-01T05:18:43.004Z,16.3
2016-10-01T05:19:52.977Z,16.4
2016-10-01T05:21:02.964Z,16.48
2016-10-01T05:22:12.940Z,16.42
2016-10-01T05:23:22.922Z,16.47
2016-10-01T05:24:33.195Z,16.44
2016-10-01T05:25:42.875Z,16.52
2016-10-01T05:26:52.855Z,16.58
2016-10-01T05:28:02.223Z,16.65
2016-10-01T05:29:12.505Z,16.54
2016-10-01T05:30:22.806Z,16.57
2016-10-01T05:31:33.085Z,16.62
2016-10-01T05:32:43.085Z,16.7
2016-10-01T05:33:53.397Z,16.67
2016-10-01T05:35:03.676Z,16.73
2016-10-01T05:36:13.657Z,16.72
2016-10-01T05:37:23.647Z,16.81
2016-10-01T05:38:33.323Z,16.85
2016-10-01T05:39:43.634Z,16.85
2016-10-01T05:40:53.922Z,16.92
2016-10-01T05:42:04.208Z,16.94
2016-10-01T05:43:14.171Z,17
2016-10-01T05:44:24.472Z,17.13
2016-10-01T05:45:34.754Z,17.09
2016-10-01T05:46:44.419Z,17.28
2016-10-01T05:47:54.410Z,17.17
2016-10-01T05:49:04.692Z,17.28
2016-10-01T05:50:14.688Z,17.31
2016-10-01T05:51:24.957Z,17.4
2016-10-01T05:52:35.283Z,17.46
2016-10-01T05:53:45.571Z,17.49
2016-10-01T05:54:55.852Z,17.5
2016-10-01T05:56:06.144Z,17.49
2016-10-01T05:57:16.129Z,17.71
2016-10-01T05:58:26.407Z,17.73
2016-10-01T05:59:36.069Z,17.79
2016-10-01T06:00:46.363Z,18.01
2016-10-01T06:01:56.333Z,17.96
2016-10-01T06:03:06.008Z,18.14
2016-10-01T06:04:15.689Z,18.14
2016-10-01T06:05:25.996Z,18.17
2016-10-01T06:06:36.284Z,18.19
2016-10-01T06:07:46.290Z,18.17
2016-10-01T06:08:56.262Z,18.29
2016-10-01T06:10:06.238Z,18.29
2016-10-01T06:11:16.545Z,18.27
2016-10-01T06:12:26.852Z,18.34
2016-10-01T06:13:37.145Z,18.41
2016-10-01T06:14:47.139Z,18.42
2016-10-01T06:15:57.422Z,18.51
2016-10-01T06:17:07.721Z,18.54
2016-10-01T06:18:18.010Z,18.59
2016-10-01T06:19:28.294Z,18.68
2016-10-01T06:20:37.979Z,18.72
2016-10-01T06:21:48.280Z,18.76
2016-10-01T06:22:58.561Z,18.79
2016-10-01T06:24:08.553Z,18.87
2016-10-01T06:25:18.835Z,18.87
2016-10-01T06:26:28.827Z,18.94
2016-10-01T06:27:39.114Z,19.1
2016-10-01T06:28:49.087Z,19.23
2016-10-01T06:29:59.073Z,19.25
2016-10-01T06:31:09.060Z,19.37
2016-10-01T06:32:19.336Z,19.43
2016-10-01T06:33:29.632Z,19.5
2016-10-01T06:34:39.614Z,19.52
2016-10-01T06:35:49.905Z,19.56
2016-10-01T06:36:59.898Z,19.65
2016-10-01T06:38:10.191Z,19.75
2016-10-01T06:39:20.182Z,19.75
2016-10-01T06:40:30.173Z,19.9
2016-10-01T06:41:39.836Z,19.95
2016-10-01T06:42:49.828Z,20.02
2016-10-01T06:43:59.808Z,20
2016-10-01T06:45:10.094Z,20.07
2016-10-01T06:46:19.777Z,20.16
2016-10-01T06:47:29.765Z,20.23
2016-10-01T06:48:40.077Z,20.25
2016-10-01T06:49:50.053Z,20.4
2016-10-01T06:51:00.363Z,20.46
2016-10-01T06:52:10.666Z,20.42
2016-10-01T06:53:20.958Z,20.51
2016-10-01T06:54:31.249Z,20.6
2016-10-01T06:55:41.254Z,20.68
2016-10-01T06:56:51.229Z,20.71
2016-10-01T06:58:01.208Z,20.72
2016-10-01T06:59:10.880Z,20.78
2016-10-01T07:00:20.567Z,20.83
2016-10-01T07:01:30.561Z,20.93
2016-10-01T07:02:40.856Z,21.06
2016-10-01T07:03:51.153Z,21.12
2016-10-01T07:05:01.450Z,21.12
2016-10-01T07:06:11.730Z,21.18
2016-10-01T07:07:21.709Z,21.16
2016-10-01T07:08:32.019Z,21.19
2016-10-01T07:09:42.016Z,21.28
2016-10-01T07:10:51.993Z,21.43
2016-10-01T07:12:02.303Z,21.45
2016-10-01T07:13:12.606Z,21.45
2016-10-01T07:14:22.277Z,21.53
2016-10-01T07:15:32.599Z,21.53
2016-10-01T07:16:42.580Z,21.53
2016-10-01T07:17:52.564Z,21.53
2016-10-01T07:19:02.555Z,21.56
2016-10-01T07:20:12.215Z,21.56
2016-10-01T07:21:22.537Z,21.56
2016-10-01T07:22:31.906Z,21.55
2016-10-01T07:23:41.897Z,21.64
2016-10-01T07:24:52.182Z,21.7
2016-10-01T07:26:02.484Z,21.68
2016-10-01T07:27:12.461Z,21.8
2016-10-01T07:28:22.152Z,21.85
2016-10-01T07:29:31.854Z,21.86
2016-10-01T07:30:41.828Z,21.94
2016-10-01T07:31:52.110Z,22.07
2016-10-01T07:33:02.405Z,22.12
2016-10-01T07:34:12.101Z,22.26
2016-10-01T07:35:22.415Z,22.24
2016-10-01T07:36:32.416Z,22.26
2016-10-01T07:37:42.708Z,22.3
2016-10-01T07:38:52.698Z,22.44
2016-10-01T07:40:03.009Z,22.57
2016-10-01T07:41:13.295Z,22.51
2016-10-01T07:42:23.592Z,22.61
2016-10-01T07:43:33.567Z,22.66
2016-10-01T07:44:43.548Z,22.78
2016-10-01T07:45:53.866Z,22.79
2016-10-01T07:47:03.886Z,22.86
2016-10-01T07:48:14.173Z,22.86
2016-10-01T07:49:23.843Z,22.89
2016-10-01T07:50:33.726Z,22.96
2016-10-01T07:51:44.028Z,22.92
2016-10-01T07:52:54.030Z,22.97
2016-10-01T07:54:03.727Z,23.03
2016-10-01T07:55:13.716Z,23.07
2016-10-01T07:56:24.004Z,23.12
2016-10-01T07:57:34.303Z,23.18
2016-10-01T07:58:44.602Z,23.14
2016-10-01T07:59:54.324Z,23.22
2016-10-01T08:01:04.314Z,23.35
2016-10-01T08:02:14.288Z,23.5
2016-10-01T08:03:24.264Z,23.48
2016-10-01T08:04:34.569Z,23.53
2016-10-01T08:05:44.883Z,23.56
2016-10-01T08:06:55.186Z,23.62
2016-10-01T08:08:05.508Z,23.64
2016-10-01T08:09:15.494Z,23.7
2016-10-01T08:10:25.525Z,23.71
2016-10-01T08:11:35.815Z,23.77
2016-10-01T08:12:45.829Z,23.81
2016-10-01T08:13:55.507Z,23.79
2016-10-01T08:15:05.182Z,23.9
2016-10-01T08:16:14.861Z,23.94
2016-10-01T08:17:24.866Z,23.99
2016-10-01T08:18:35.173Z,23.99
2016-10-01T08:19:45.464Z,24.03
2016-10-01T08:20:55.439Z,24.18
2016-10-01T08:22:05.424Z,24.15
2016-10-01T08:23:15.732Z,24.29
2016-10-01T08:24:25.410Z,24.42
2016-10-01T08:25:35.389Z,24.48
2016-10-01T08:26:46.394Z,24.55
2016-10-01T08:27:57.046Z,24.7
2016-10-01T08:29:07.463Z,24.8
2016-10-01T08:30:17.815Z,24.67
2016-10-01T08:31:30.395Z,24.67
2016-10-01T08:32:40.427Z,24.71
2016-10-01T08:33:52.410Z,24.8
2016-10-01T08:35:06.394Z,24.83
2016-10-01T08:36:18.795Z,24.75
2016-10-01T08:37:31.848Z,24.8
2016-10-01T08:38:43.161Z,24.71
2016-10-01T08:39:53.235Z,24.69
2016-10-01T08:41:02.667Z,24.59
2016-10-01T08:42:13.113Z,24.69
2016-10-01T08:43:22.858Z,24.77
2016-10-01T08:44:32.757Z,24.75
2016-10-01T08:45:42.805Z,24.9
2016-10-01T08:46:52.891Z,25.02
2016-10-01T08:48:03.391Z,25.14
2016-10-01T08:49:13.776Z,25.26
2016-10-01T08:50:24.188Z,25.29
2016-10-01T08:51:34.555Z,25.41
2016-10-01T08:52:44.323Z,25.47
2016-10-01T08:53:54.426Z,25.42
2016-10-01T08:55:04.482Z,25.44
2016-10-01T08:56:14.927Z,25.48
2016-10-01T08:57:25.369Z,25.52
2016-10-01T08:58:35.391Z,25.52
2016-10-01T08:59:45.381Z,25.56
2016-10-01T09:00:55.704Z,25.63
2016-10-01T09:02:05.721Z,25.69
2016-10-01T09:03:15.732Z,25.64
2016-10-01T09:04:26.378Z,25.75
2016-10-01T09:05:36.117Z,25.79
2016-10-01T09:06:46.967Z,25.88
2016-10-01T09:07:57.374Z,25.88
2016-10-01T09:09:07.424Z,25.79
2016-10-01T09:10:17.412Z,25.76
2016-10-01T09:11:27.489Z,25.82
2016-10-01T09:12:37.884Z,25.82
2016-10-01T09:13:47.932Z,25.96
2016-10-01T09:14:57.593Z,26.03
2016-10-01T09:16:08.438Z,26.06
2016-10-01T09:17:19.051Z,26.15
2016-10-01T09:18:29.114Z,26.17
2016-10-01T09:19:39.628Z,26.24
2016-10-01T09:20:50.012Z,26.32
2016-10-01T09:22:00.365Z,26.44
2016-10-01T09:23:10.773Z,26.44
2016-10-01T09:24:20.793Z,26.61
2016-10-01T09:25:31.104Z,26.71
2016-10-01T09:26:41.667Z,26.82
2016-10-01T09:27:51.996Z,26.93
2016-10-01T09:29:02.041Z,26.96
2016-10-01T09:30:12.036Z,26.97
2016-10-01T09:31:21.718Z,26.99
2016-10-01T09:32:32.038Z,26.89
2016-10-01T09:33:42.040Z,26.89
2016-10-01T09:34:52.392Z,27.05
2016-10-01T09:36:02.730Z,27.08
2016-10-01T09:37:13.034Z,27.08
2016-10-01T09:38:22.732Z,27.13
2016-10-01T09:39:32.713Z,27.21
2016-10-01T09:40:42.717Z,27.19
2016-10-01T09:41:53.020Z,27.36
2016-10-01T09:43:02.715Z,27.46
2016-10-01T09:44:13.024Z,27.46
2016-10-01T09:45:23.693Z,27.38
2016-10-01T09:46:33.712Z,27.38
2016-10-01T09:47:43.385Z,27.45
2016-10-01T09:48:53.374Z,27.46
2016-10-01T09:50:03.386Z,27.45
2016-10-01T09:51:13.710Z,27.53
2016-10-01T09:52:23.720Z,27.51
2016-10-01T09:53:34.021Z,27.53
2016-10-01T09:54:43.738Z,27.33
2016-10-01T09:55:54.057Z,27.43
2016-10-01T09:57:04.058Z,27.45
2016-10-01T09:58:14.362Z,27.37
2016-10-01T09:59:24.692Z,27.51
2016-10-01T10:00:34.985Z,27.49
2016-10-01T10:01:44.995Z,27.51
2016-10-01T10:02:55.001Z,27.61
2016-10-01T10:04:05.302Z,27.64
2016-10-01T10:05:15.610Z,27.66
2016-10-01T10:06:25.601Z,27.75
2016-10-01T10:07:35.915Z,27.69
2016-10-01T10:08:46.248Z,27.84
2016-10-01T10:09:56.569Z,27.87
2016-10-01T10:11:06.875Z,27.99
2016-10-01T10:12:16.582Z,27.98
2016-10-01T10:13:26.897Z,28.03
2016-10-01T10:14:36.885Z,28.14
2016-10-01T10:15:47.181Z,28.17
2016-10-01T10:16:57.190Z,28.18
2016-10-01T10:18:07.178Z,28.2
2016-10-01T10:19:17.173Z,28.28
2016-10-01T10:20:27.471Z,28.36
2016-10-01T10:21:37.467Z,28.46
2016-10-01T10:22:46.543Z,28.55
2016-10-01T10:23:56.539Z,28.67
2016-10-01T10:25:06.864Z,28.82
2016-10-01T10:26:17.179Z,28.79
2016-10-01T10:27:27.173Z,28.94
2016-10-01T10:28:37.506Z,29.02
2016-10-01T10:29:47.500Z,29.02
2016-10-01T10:30:56.873Z,28.92
2016-10-01T10:32:07.165Z,28.95
2016-10-01T10:33:17.531Z,28.92
2016-10-01T10:34:26.910Z,28.98
2016-10-01T10:35:36.596Z,28.92
2016-10-01T10:36:46.610Z,28.92
2016-10-01T10:37:56.612Z,29.02
2016-10-01T10:39:06.612Z,29.11
2016-10-01T10:40:16.919Z,29.03
2016-10-01T10:41:26.921Z,29.17
2016-10-01T10:42:37.153Z,29.26
2016-10-01T10:43:47.463Z,29.23
2016-10-01T10:44:57.779Z,29.29
2016-10-01T10:46:08.090Z,29.29
2016-10-01T10:47:18.398Z,29.32
2016-10-01T10:48:28.726Z,29.29
2016-10-01T10:49:39.057Z,29.43
2016-10-01T10:50:49.370Z,29.45
2016-10-01T10:51:59.695Z,29.51
2016-10-01T10:53:10.006Z,29.45
2016-10-01T10:54:20.318Z,29.35
2016-10-01T10:55:30.307Z,29.26
2016-10-01T10:56:40.612Z,29.35
2016-10-01T10:57:50.606Z,29.32
2016-10-01T10:59:00.625Z,29.39
2016-10-01T11:00:10.327Z,29.3
2016-10-01T11:01:20.654Z,29.32
2016-10-01T11:02:30.646Z,29.24
2016-10-01T11:03:40.947Z,29.21
2016-10-01T11:04:50.944Z,29.11
2016-10-01T11:06:00.983Z,29.02
2016-10-01T11:07:10.680Z,28.98
2016-10-01T11:08:20.987Z,29.1
2016-10-01T11:09:31.316Z,29.18
2016-10-01T11:10:41.323Z,29.15
2016-10-01T11:11:51.321Z,29.28
2016-10-01T11:13:01.326Z,29.33
2016-10-01T11:14:11.628Z,29.33
2016-10-01T11:15:21.324Z,29.32
2016-10-01T11:16:31.623Z,29.35
2016-10-01T11:17:41.939Z,29.43
2016-10-01T11:18:51.958Z,29.43
2016-10-01T11:20:01.977Z,29.67
2016-10-01T11:21:11.977Z,29.67
2016-10-01T11:22:22.299Z,29.77
2016-10-01T11:23:31.986Z,29.72
2016-10-01T11:24:41.976Z,29.73
2016-10-01T11:25:52.313Z,29.77
2016-10-01T11:27:02.310Z,29.77
2016-10-01T11:28:12.003Z,29.75
2016-10-01T11:29:22.338Z,29.61
2016-10-01T11:30:32.343Z,29.66
2016-10-01T11:31:42.349Z,29.72
2016-10-01T11:32:52.345Z,29.7
2016-10-01T11:34:01.727Z,29.63
2016-10-01T11:35:11.713Z,29.61
2016-10-01T11:36:22.037Z,29.69
2016-10-01T11:37:32.032Z,29.65
2016-10-01T11:38:42.027Z,29.58
2016-10-01T11:39:52.025Z,29.66
2016-10-01T11:41:02.021Z,29.58
2016-10-01T11:42:12.324Z,29.63
2016-10-01T11:43:22.876Z,29.75
2016-10-01T11:44:32.915Z,29.7
2016-10-01T11:45:43.224Z,29.67
2016-10-01T11:46:53.225Z,29.66
2016-10-01T11:48:03.227Z,29.61
2016-10-01T11:49:13.239Z,29.75
2016-10-01T11:50:23.251Z,29.65
2016-10-01T11:51:33.290Z,29.67
2016-10-01T11:52:43.599Z,29.63
2016-10-01T11:53:53.920Z,29.66
2016-10-01T11:55:04.222Z,29.77
2016-10-01T11:56:14.550Z,29.77
2016-10-01T11:57:24.258Z,29.76
2016-10-01T11:58:34.612Z,29.73
2016-10-01T11:59:44.923Z,29.87
2016-10-01T12:00:54.909Z,30
2016-10-01T12:02:05.229Z,30.07
2016-10-01T12:03:15.232Z,30.13
2016-10-01T12:04:25.255Z,30.06
2016-10-01T12:05:35.248Z,30.06
2016-10-01T12:06:44.938Z,30.04
2016-10-01T12:07:54.924Z,30.06
2016-10-01T12:09:05.213Z,30.03
2016-10-01T12:10:15.194Z,30
2016-10-01T12:11:25.213Z,30.03
2016-10-01T12:12:34.886Z,30.06
2016-10-01T12:13:44.904Z,30.03
2016-10-01T12:14:54.909Z,29.84
2016-10-01T12:16:04.894Z,29.77
2016-10-01T12:17:14.887Z,29.75
2016-10-01T12:18:25.197Z,29.73
2016-10-01T12:19:35.199Z,29.69
2016-10-01T12:20:44.906Z,29.67
2016-10-01T12:21:55.221Z,29.61
2016-10-01T12:23:05.227Z,29.66
2016-10-01T12:24:15.555Z,29.65
2016-10-01T12:25:25.260Z,29.69
2016-10-01T12:26:34.938Z,29.67
2016-10-01T12:27:45.246Z,29.65
2016-10-01T12:28:55.265Z,29.65
2016-10-01T12:30:05.567Z,29.66
2016-10-01T12:31:15.871Z,29.77
2016-10-01T12:32:25.881Z,29.94
2016-10-01T12:33:35.562Z,30.03
2016-10-01T12:34:45.872Z,30.1
2016-10-01T12:35:55.885Z,30.09
2016-10-01T12:37:06.200Z,30.14
2016-10-01T12:38:16.507Z,30.09
2016-10-01T12:39:26.822Z,30.16
2016-10-01T12:40:37.133Z,30.14
2016-10-01T12:41:47.120Z,30.03
2016-10-01T12:42:57.429Z,30.04
2016-10-01T12:44:07.736Z,30.09
2016-10-01T12:45:17.432Z,30.26
2016-10-01T12:46:27.466Z,30.35
2016-10-01T12:47:37.771Z,30.44
2016-10-01T12:48:48.080Z,30.45
2016-10-01T12:49:58.400Z,30.47
2016-10-01T12:51:08.718Z,30.48
2016-10-01T12:52:18.720Z,30.49
2016-10-01T12:53:29.021Z,30.59
2016-10-01T12:54:39.339Z,30.54
2016-10-01T12:55:49.676Z,30.59
2016-10-01T12:57:00.012Z,30.7
2016-10-01T12:58:10.300Z,30.7
2016-10-01T12:59:20.287Z,30.73
2016-10-01T13:00:30.285Z,30.7
2016-10-01T13:01:40.288Z,30.59
2016-10-01T13:02:50.311Z,30.52
2016-10-01T13:04:00.624Z,30.34
2016-10-01T13:05:10.006Z,30.26
2016-10-01T13:06:20.314Z,30.19
2016-10-01T13:07:30.308Z,30.14
2016-10-01T13:08:40.005Z,30.09
2016-10-01T13:09:50.310Z,30.02
2016-10-01T13:11:00.321Z,29.98
2016-10-01T13:12:09.998Z,30.03
2016-10-01T13:13:20.015Z,29.97
2016-10-01T13:14:30.030Z,30.02
2016-10-01T13:15:40.022Z,29.98
2016-10-01T13:16:50.317Z,30.06
2016-10-01T13:18:00.013Z,30.06
2016-10-01T13:19:10.320Z,30.1
2016-10-01T13:20:20.636Z,30.14
2016-10-01T13:21:30.967Z,30.11
2016-10-01T13:22:41.269Z,30.04
2016-10-01T13:23:51.268Z,29.91
2016-10-01T13:25:00.950Z,29.97
2016-10-01T13:26:11.303Z,29.89
2016-10-01T13:27:21.612Z,29.88
2016-10-01T13:28:31.614Z,30.03
2016-10-01T13:29:41.945Z,29.91
2016-10-01T13:30:51.973Z,29.76
2016-10-01T13:32:01.679Z,29.57
2016-10-01T13:33:11.675Z,29.52
2016-10-01T13:34:22.019Z,29.55
2016-10-01T13:35:32.362Z,29.5
2016-10-01T13:36:42.695Z,29.4
2016-10-01T13:37:52.988Z,29.45
2016-10-01T13:39:03.315Z,29.48
2016-10-01T13:40:13.627Z,29.54
2016-10-01T13:41:23.947Z,29.63
2016-10-01T13:42:34.264Z,29.57
2016-10-01T13:43:44.252Z,29.67
2016-10-01T13:44:54.285Z,29.63
2016-10-01T13:46:04.609Z,29.54
2016-10-01T13:47:14.936Z,29.57
2016-10-01T13:48:24.636Z,29.51
2016-10-01T13:49:34.641Z,29.45
2016-10-01T13:50:44.965Z,29.32
2016-10-01T13:51:55.280Z,29.29
2016-10-01T13:53:04.968Z,29.38
2016-10-01T13:54:15.277Z,29.23
2016-10-01T13:55:25.287Z,29.24
2016-10-01T13:56:35.601Z,29.13
2016-10-01T13:57:45.613Z,29.08
2016-10-01T13:58:55.943Z,29.05
2016-10-01T14:00:05.947Z,29.1
2016-10-01T14:01:15.944Z,29.08
2016-10-01T14:02:25.635Z,29.03
2016-10-01T14:03:35.969Z,29.08
2016-10-01T14:04:45.668Z,28.92
2016-10-01T14:05:55.999Z,28.94
2016-10-01T14:07:06.005Z,28.83
2016-10-01T14:08:15.710Z,28.9
2016-10-01T14:09:26.020Z,28.83
2016-10-01T14:10:36.044Z,28.85
2016-10-01T14:11:46.345Z,28.86
2016-10-01T14:12:56.387Z,28.9
2016-10-01T14:14:06.689Z,28.85
2016-10-01T14:15:17.071Z,28.85
2016-10-01T14:16:27.393Z,28.75
2016-10-01T14:17:36.794Z,28.83
2016-10-01T14:18:47.097Z,28.67
2016-10-01T14:19:57.428Z,28.78
2016-10-01T14:21:07.430Z,28.64
2016-10-01T14:22:17.748Z,28.6
2016-10-01T14:23:27.752Z,28.53
2016-10-01T14:24:37.748Z,28.53
2016-10-01T14:25:47.762Z,28.48
2016-10-01T14:26:58.096Z,28.43
2016-10-01T14:28:08.419Z,28.45
2016-10-01T14:29:18.730Z,28.41
2016-10-01T14:30:29.064Z,28.43
2016-10-01T14:31:39.400Z,28.42
2016-10-01T14:32:49.722Z,28.39
2016-10-01T14:33:59.732Z,28.49
2016-10-01T14:35:10.074Z,28.43
2016-10-01T14:36:20.377Z,28.42
2016-10-01T14:37:30.695Z,28.42
2016-10-01T14:38:40.615Z,28.42
2016-10-01T14:39:50.606Z,28.42
2016-10-01T14:41:00.617Z,28.33
2016-10-01T14:42:10.617Z,28.35
2016-10-01T14:43:20.933Z,28.28
2016-10-01T14:44:30.918Z,28.17
2016-10-01T14:45:41.230Z,28.18
2016-10-01T14:46:51.235Z,28.18
2016-10-01T14:48:01.584Z,28.08
2016-10-01T14:49:11.919Z,27.96
2016-10-01T14:50:21.928Z,27.96
2016-10-01T14:51:31.924Z,27.96
2016-10-01T14:52:42.252Z,27.89
2016-10-01T14:53:52.259Z,27.8
2016-10-01T14:55:02.557Z,27.8
2016-10-01T14:56:12.890Z,27.72
2016-10-01T14:57:22.905Z,27.8
2016-10-01T14:58:33.216Z,27.8
2016-10-01T14:59:43.564Z,27.71
2016-10-01T15:00:53.883Z,27.74
2016-10-01T15:02:04.185Z,27.72
2016-10-01T15:03:14.492Z,27.74
2016-10-01T15:04:24.478Z,27.57
2016-10-01T15:05:34.804Z,27.49
2016-10-01T15:06:44.818Z,27.51
2016-10-01T15:07:55.145Z,27.48
2016-10-01T15:09:05.163Z,27.36
2016-10-01T15:10:15.186Z,27.13
2016-10-01T15:11:25.197Z,27.09
2016-10-01T15:12:35.206Z,26.97
2016-10-01T15:13:45.527Z,27.04
2016-10-01T15:14:55.237Z,26.99
2016-10-01T15:16:05.547Z,26.86
2016-10-01T15:17:14.930Z,26.81
2016-10-01T15:18:25.257Z,26.81
2016-10-01T15:19:35.581Z,26.76
2016-10-01T15:20:45.900Z,26.63
2016-10-01T15:21:55.289Z,26.63
2016-10-01T15:23:05.596Z,26.56
2016-10-01T15:24:15.299Z,26.39
2016-10-01T15:25:25.298Z,26.39
2016-10-01T15:26:35.278Z,26.44
2016-10-01T15:27:45.292Z,26.31
2016-10-01T15:28:55.601Z,26.27
2016-10-01T15:30:05.304Z,26.19
2016-10-01T15:31:15.636Z,26.15
2016-10-01T15:32:25.986Z,26.06
2016-10-01T15:33:36.314Z,25.99
2016-10-01T15:34:46.614Z,25.96
2016-10-01T15:35:56.931Z,25.89
2016-10-01T15:37:06.320Z,25.85